Ardara, PA

9:59 PM EST on November 27, 2014 (GMT -0500)
Willow Glen | Change Station
CLOSE
Current Station
Personal Weather Station
Location: Irwin, PA
Elevation: 1191 ft
Nearby Weather Stations

Elev 1191 ft 40.33 °N, 79.76 °W | Updated 17 seconds ago

Overcast
Overcast
28.6 °F
Feels Like 17 °F
N
15.0
Wind Variable Wind from West
Gusts 17.6 mph

Today
High -- | Low -- °F
--% Chance of Precip.
Yesterday
High -- | Low -- °F
Precip. -- in
7:18 AM 4:54 PM
Waxing Crescent, 35% visible
Pressure 30.24 in
Visibility 9.0 miles
Clouds Scattered Clouds 1400 ft
Mostly Cloudy 2000 ft
Overcast 9500 ft
Windchill 17 °F
Dew Point 25 °F
Humidity 87%
Rainfall 0.09 in
Snow Depth Not available.
UV 0 out of 12
Pollen .10 out of 12
Air Quality Not available.
Flu Activity Not available.
METAR KAGC 280253Z 27008G17KT 9SM SCT014 BKN020 OVC095 M02/M06 A3019 RMK AO2 SLP240 T10221056 51004

More Conditions Fewer Conditions

Pressure 30.24 in
Visibility 9.0 miles
Clouds Scattered Clouds 1400 ft
Mostly Cloudy 2000 ft
Overcast 9500 ft
Windchill 17 °F
Dew Point 25 °F
Humidity 87%
Rainfall 0.09 in
Snow Depth Not available.
UV 0 out of 12
Pollen .10 out of 12
Air Quality Not available.
Flu Activity Not available.
METAR KAGC 280253Z 27008G17KT 9SM SCT014 BKN020 OVC095 M02/M06 A3019 RMK AO2 SLP240 T10221056 51004

More Conditions Fewer Conditions

10-Day Weather Forecast

Almanac

Astronomy

Nov. 27, 2014 Rise Set
Actual Time
Civil Twilight
Nautical Twilight
Astronomical Twilight
Moon
Length of Visible Light
Length of Day
Tomorrow will be .
, % of the Moon is Illuminated

Today's Extremes

State Highs State Lows

Community

WunderPhotos

Upload Photos

1,774,164 photos uploaded!

WunderBlogs® & News

Nearby

Air Quality

  Air Quality AQ Index Pollutant
Not available.

Snow Depth

Station Depth Elevation

Earthquake Activity

City Distance Mag. Time & Date
Minimum magnitude displayed is 2.5.

Coastal Water Temperatures

Place Temperature

Nearby Weather Stations